• Join FlightAware (Why Join?)
  • Login
  • US Flag GB Flag 
16:47 EST


 

Airport Tracker/Info


-or-


 

Live Flight TrackerFlight Track Log ✈ AAY846 ✈ 03-Jan-2014 ✈ KPIE - KPIA

Flight Track Log - Related Links

Times and Time Zones

All times are in EST time to prevent confusion due to time zone crossing. See the AAY846 flight status page for this flight to view local times or setup timezone preferences in your user account.

Time Position Orientation Groundspeed Altitude Reporting Facility
EST Latitude Longitude Course Direction KTS MPH feet Rate Location/Type
08:14 27.9333 -82.7000 333° Northwest 150 173 1,100  Level Tampa TRACON
08:15 27.9500 -82.6833 41° Northeast 149 171 2,500 1,920 Climbing Tampa TRACON
08:16 28.0000 -82.6833 360° North 200 230 4,400 1,980 Climbing Tampa TRACON
08:18 28.1081 -82.6950 355° North 252 290 7,900 2,280 Climbing Jacksonville Center
08:19 28.1811 -82.7089 350° North 257 296 10,400 1,740 Climbing Jacksonville Center
08:20 28.5235 -82.9768 333° Northwest  Level Estimated
08:20 28.2689 -82.7228 352° North 280 322 11,400  Level Jacksonville Center
08:21 28.3647 -82.7369 353° North 319 367 13,100 1,860 Climbing Jacksonville Center
08:22 28.4669 -82.7603 349° North 352 405 15,200 2,100 Climbing Jacksonville Center
08:23 28.5694 -82.8050 339° North 368 423 17,400 1,800 Climbing Jacksonville Center
08:24 28.6736 -82.8475 340° North 384 442 18,800 1,560 Climbing Jacksonville Center
08:25 28.7761 -82.8925 339° North 389 448 20,600 1,500 Climbing Jacksonville Center
08:26 28.8844 -82.9425 338° Northwest 394 453 21,800 1,260 Climbing Jacksonville Center
08:27 28.9992 -82.9875 341° North 412 474 23,200 1,320 Climbing Jacksonville Center
08:28 29.1161 -83.0328 341° North 432 497 24,500 1,260 Climbing Jacksonville Center
08:29 29.2350 -83.0783 342° North 442 509 25,800 1,440 Climbing Jacksonville Center
08:30 29.3497 -83.1331 337° Northwest 448 516 27,400 1,320 Climbing Jacksonville Center
08:31 29.4644 -83.1908 336° Northwest 448 516 28,500 960 Climbing Jacksonville Center
08:32 29.5833 -83.2483 337° Northwest 453 521 29,400 960 Climbing Jacksonville Center
08:33 29.6981 -83.3039 337° Northwest 453 521 30,500 900 Climbing Jacksonville Center
08:34 29.8147 -83.3594 338° Northwest 453 521 31,300 660 Climbing Jacksonville Center
08:35 29.9314 -83.4175 337° Northwest 453 521 31,900 300 Climbing Jacksonville Center
08:36 30.0461 -83.4733 337° Northwest 453 521 31,900  Level Jacksonville Center
08:37 30.1625 -83.5292 337° Northwest 453 521 31,900  Level Jacksonville Center
08:38 30.2814 -83.5878 337° Northwest 458 527 31,900  Level Jacksonville Center
08:39 30.3981 -83.6464 337° Northwest 458 527 31,900  Level Jacksonville Center
08:40 30.5167 -83.7028 338° Northwest 458 527 31,900  Level Jacksonville Center
08:41 30.6247 -83.7617 335° Northwest 447 514 32,000  Climbing Jacksonville Center
08:42 30.7350 -83.8158 337° Northwest 436 502 32,000  Level Jacksonville Center
08:43 30.8494 -83.8775 335° Northwest 441 507 32,000  Level Jacksonville Center
08:44 30.9617 -83.9319 337° Northwest 441 507 32,000 -60 Level Jacksonville Center
08:45 31.0761 -83.9864 338° Northwest 441 507 31,900  Descending Jacksonville Center
08:46 31.1864 -84.0436 336° Northwest 441 507 32,000  Climbing Jacksonville Center
08:48 31.4564 -84.1825 336° Northwest 444 511 32,000 -60 Level Atlanta Center
08:49 31.5650 -84.2364 337° Northwest 433 498 31,900  Descending Atlanta Center
08:50 31.6753 -84.2925 337° Northwest 433 498 32,000  Climbing Atlanta Center
08:51 31.7714 -84.3442 335° Northwest 428 493 32,000  Level Atlanta Center
08:52 31.8817 -84.4008 336° Northwest 423 487 32,000 -60 Level Atlanta Center
08:53 31.9900 -84.4550 337° Northwest 423 487 31,900  Descending Atlanta Center
08:54 32.0942 -84.5072 337° Northwest 418 481 32,000  Climbing Atlanta Center
08:55 32.2006 -84.5667 335° Northwest 418 481 32,000  Level Atlanta Center
08:56 32.3089 -84.6214 337° Northwest 418 481 32,000  Level Atlanta Center
08:57 32.4150 -84.6761 336° Northwest 418 481 32,000  Level Atlanta Center
08:58 32.5211 -84.7311 336° Northwest 418 481 32,000  Level Atlanta Center
08:59 32.6272 -84.7861 336° Northwest 418 481 32,000  Level Atlanta Center
09:00 32.7417 -84.8389 339° North 418 481 32,000  Level Atlanta Center
09:01 32.8539 -84.9067 333° Northwest 426 490 32,000  Level Atlanta Center
09:02 32.9581 -84.9622 336° Northwest 421 484 32,000  Level Atlanta Center
09:03 33.0514 -85.0103 337° Northwest 421 484 32,000  Level Atlanta Center
09:04 33.1556 -85.0661 336° Northwest 416 479 32,000  Level Atlanta Center
09:05 33.2614 -85.1244 335° Northwest 416 479 32,000  Level Atlanta Center
09:06 33.3672 -85.1806 336° Northwest 416 479 32,000  Level Atlanta Center
09:07 33.4753 -85.2317 338° Northwest 416 479 32,000  Level Atlanta Center
09:08 33.5936 -85.2981 335° Northwest 416 479 32,000  Level Atlanta Center
09:09 33.6975 -85.3547 336° Northwest 416 479 32,000  Level Atlanta Center
09:10 33.8033 -85.4089 337° Northwest 416 479 32,000  Level Atlanta Center
09:11 33.9069 -85.4681 335° Northwest 416 479 32,000  Level Atlanta Center
09:12 34.0128 -85.5225 337° Northwest 416 479 32,000  Level Atlanta Center
09:13 34.1144 -85.5769 336° Northwest 409 471 32,000  Level Atlanta Center
09:14 34.2203 -85.6339 336° Northwest 409 471 32,000  Level Atlanta Center
09:15 34.3133 -85.6861 335° Northwest 402 463 32,000  Level Atlanta Center
09:16 34.4253 -85.7461 336° Northwest 402 463 32,000  Level Atlanta Center
09:17 34.5267 -85.8036 335° Northwest 397 457 32,000  Level Atlanta Center
09:18 34.6322 -85.8589 337° Northwest 397 457 32,000  Level Atlanta Center
09:19 34.7317 -85.9142 335° Northwest 397 457 32,000  Level Atlanta Center
09:20 34.8353 -85.9697 336° Northwest 397 457 32,000  Level Atlanta Center
09:22 35.0581 -86.0969 335° Northwest 403 464 32,000  Level Memphis Center
09:23 35.1606 -86.1536 336° Northwest 402 463 32,000  Level Memphis Center
09:24 35.2625 -86.2117 335° Northwest 407 468 32,000  Level Memphis Center
09:25 35.3653 -86.2686 336° Northwest 403 464 32,000  Level Memphis Center
09:26 35.4681 -86.3258 336° Northwest 402 463 32,000  Level Memphis Center
09:27 35.5708 -86.3842 335° Northwest 402 463 32,000  Level Memphis Center
09:28 35.6731 -86.4436 335° Northwest 402 463 32,000  Level Memphis Center
09:29 35.7933 -86.5108 336° Northwest 403 464 32,000  Level Memphis Center
09:30 35.8953 -86.5697 335° Northwest 402 463 32,000  Level Memphis Center
09:31 35.9969 -86.6281 335° Northwest 399 459 32,000  Level Memphis Center
09:32 36.0972 -86.6853 335° Northwest 396 456 32,000  Level Memphis Center
09:33 36.1994 -86.7436 335° Northwest 399 459 32,000  Level Memphis Center
09:35 36.2983 -86.8000 335° Northwest 395 455 32,000  Level Memphis Center
09:36 36.4108 -86.8639 335° Northwest 394 453 32,000  Level Memphis Center
09:37 36.5097 -86.9203 335° Northwest 392 451 32,000  Level Memphis Center
09:38 36.6094 -86.9786 335° Northwest 392 451 32,000  Level Memphis Center
09:39 36.7083 -87.0364 335° Northwest 391 450 32,000  Level Memphis Center
09:40 36.8086 -87.0947 335° Northwest 392 451 32,000  Level Memphis Center
09:41 36.9081 -87.1539 335° Northwest 393 452 32,000  Level Memphis Center
09:42 37.0086 -87.2125 335° Northwest 393 452 32,000  Level Memphis Center
09:43 37.1244 -87.2814 335° Northwest 392 451 32,000  Level Memphis Center
09:44 37.2247 -87.3400 335° Northwest 393 452 32,000  Level Memphis Center
09:45 37.3236 -87.3983 335° Northwest 391 450 32,000  Level Memphis Center
09:46 37.4231 -87.4583 334° Northwest 392 451 32,000  Level Memphis Center
09:47 37.5231 -87.5181 335° Northwest 392 451 32,000  Level Memphis Center
09:48 37.6228 -87.5778 335° Northwest 392 451 32,000  Level Memphis Center
09:49 37.7225 -87.6386 334° Northwest 393 452 32,000  Level Memphis Center
09:50 37.8622 -87.7222 335° Northwest 392 451 32,000  Level Indianapolis Center
09:51 37.9617 -87.7831 334° Northwest 392 451 32,000  Level Indianapolis Center
09:52 38.0619 -87.8419 335° Northwest 392 451 32,000  Level Indianapolis Center
09:53 38.1617 -87.9003 335° Northwest 391 450 32,000  Level Indianapolis Center
09:54 38.2606 -87.9606 334° Northwest 389 448 32,000  Level Indianapolis Center
09:55 38.3611 -88.0197 335° Northwest 392 451 32,000  Level Indianapolis Center
09:56 38.4608 -88.0803 335° Northwest 393 452 32,000  Level Indianapolis Center
09:57 38.5608 -88.1406 335° Northwest 393 452 32,000  Level Indianapolis Center
09:58 38.6611 -88.1992 335° Northwest 393 452 32,000 -300 Level Indianapolis Center
09:59 38.7614 -88.2600 335° Northwest 394 453 31,500 -840 Descending Indianapolis Center
10:00 38.8625 -88.3189 336° Northwest 397 457 30,400 -1,140 Descending Indianapolis Center
10:02 38.9628 -88.3794 335° Northwest 395 455 29,200 -1,200 Descending Indianapolis Center
10:03 39.0642 -88.4417 335° Northwest 399 459 28,000 -1,500 Descending Indianapolis Center
10:04 39.1867 -88.5150 335° Northwest 401 461 26,200 -1,680 Descending Indianapolis Center
10:05 39.2892 -88.5783 334° Northwest 405 466 24,600 -1,620 Descending Indianapolis Center
10:06 39.3933 -88.6419 335° Northwest 409 471 22,900 -1,800 Descending Indianapolis Center
10:07 39.4958 -88.7058 334° Northwest 408 470 20,900 -2,400 Descending Indianapolis Center
10:08 39.6000 -88.7686 335° Northwest 393 452 18,100 -1,980 Descending Indianapolis Center
10:09 39.7272 -88.8481 334° Northwest 367 422 16,100 -1,620 Descending Indianapolis Center
10:10 39.8053 -88.9086 329° Northwest 338 389 14,200 -1,980 Descending Indianapolis Center
10:11 39.8411 -88.9428 324° Northwest 317 365 13,100 -1,800 Descending Chicago Center
10:11 39.8708 -88.9678 327° Northwest 316 364 12,400 -1,080 Descending Kansas City Center
10:12 39.9100 -89.0058 323° Northwest 304 350 12,000 -300 Descending Chicago Center
10:13 39.9783 -89.0692 325° Northwest 302 348 12,000  Level Chicago Center
10:14 40.0461 -89.1278 327° Northwest 295 339 12,000 -240 Level Chicago Center
10:14 40.0881 -89.1653 326° Northwest 295 339 11,700 -600 Descending Kansas City Center
10:15 40.1564 -89.2281 325° Northwest 298 343 11,100 -720 Descending Kansas City Center
10:16 40.2294 -89.2672 338° Northwest 285 328 10,300 -1,200 Descending Kansas City Center
10:17 40.2986 -89.2994 340° North 269 310 8,700 -1,620 Descending Kansas City Center
10:18 40.3667 -89.3314 340° North 263 303 7,100 -1,560 Descending Kansas City Center
10:19 40.4331 -89.3711 336° Northwest 261 300 5,500 -1,440 Descending Kansas City Center
10:20 40.5133 -89.4211 335° Northwest 264 304 4,200 -1,080 Descending Kansas City Center
10:21 40.5822 -89.4622 336° Northwest 269 310 3,300 -780 Descending Kansas City Center
10:22 40.6467 -89.4989 337° Northwest 263 303 2,600 -480 Descending Kansas City Center
10:24 40.7019 -89.5389 331° Northwest 245 282 2,400 -180 Descending Kansas City Center
10:25 40.7350 -89.5950 308° West 213 245 2,300 -300 Descending Kansas City Center
10:26 40.7158 -89.6308 235° Southwest 154 177 1,900 -540 Descending Kansas City Center
10:27 40.6911 -89.6564 218° Southwest 126 145 1,300 -600 Descending Kansas City Center
10:28 40.6614 -89.6867 218° Southwest 122 140 700 -600 Descending Kansas City Center